createdAt,value
2018-12-05T00:02:03.751Z,2.10
2018-12-05T00:04:32.211Z,2.10
2018-12-05T00:07:00.687Z,2.10
2018-12-05T00:09:31.991Z,2.20
2018-12-05T00:12:00.479Z,2.10
2018-12-05T00:14:29.753Z,2.10
2018-12-05T00:16:58.250Z,2.10
2018-12-05T00:19:26.714Z,2.00
2018-12-05T00:24:23.310Z,2.00
2018-12-05T00:26:52.026Z,2.00
2018-12-05T00:29:20.475Z,1.90
2018-12-05T00:31:48.930Z,1.90
2018-12-05T00:34:17.382Z,1.90
2018-12-05T00:36:45.845Z,1.80
2018-12-05T00:39:14.302Z,1.80
2018-12-05T00:41:42.770Z,1.80
2018-12-05T00:46:39.566Z,1.70
2018-12-05T00:49:08.021Z,1.70
2018-12-05T00:51:36.486Z,1.70
2018-12-05T00:54:05.090Z,1.70
2018-12-05T00:56:33.583Z,1.70
2018-12-05T00:59:02.414Z,1.70
2018-12-05T01:01:30.870Z,1.70
2018-12-05T01:03:59.330Z,1.70
2018-12-05T01:06:27.787Z,1.70
2018-12-05T01:08:56.483Z,1.60
2018-12-05T01:11:24.965Z,1.60
2018-12-05T01:16:21.546Z,1.60
2018-12-05T01:18:50.002Z,1.60
2018-12-05T01:21:18.454Z,1.60
2018-12-05T01:23:46.902Z,1.60
2018-12-05T01:26:15.378Z,1.60
2018-12-05T01:28:43.834Z,1.60
2018-12-05T01:31:12.363Z,1.60
2018-12-05T01:33:40.941Z,1.50
2018-12-05T01:36:09.414Z,1.50
2018-12-05T01:38:37.870Z,1.50
2018-12-05T01:41:06.330Z,1.50
2018-12-05T01:43:40.166Z,1.40
2018-12-05T01:46:08.630Z,1.40
2018-12-05T01:48:37.082Z,1.40
2018-12-05T01:51:05.542Z,1.40
2018-12-05T01:53:34.125Z,1.40
2018-12-05T01:56:02.620Z,1.40
2018-12-05T01:58:31.074Z,1.40
2018-12-05T02:01:00.034Z,1.40
2018-12-05T02:03:28.650Z,1.40
2018-12-05T02:05:57.138Z,1.40
2018-12-05T02:08:25.853Z,1.30
2018-12-05T02:10:54.334Z,1.30
2018-12-05T02:13:22.914Z,1.30
2018-12-05T02:15:51.382Z,1.30
2018-12-05T02:18:19.839Z,1.30
2018-12-05T02:20:48.302Z,1.20
2018-12-05T02:23:16.761Z,1.30
2018-12-05T02:25:45.338Z,1.30
2018-12-05T02:28:13.799Z,1.30
2018-12-05T02:30:42.406Z,1.30
2018-12-05T02:33:11.029Z,1.30
2018-12-05T02:35:39.507Z,1.20
2018-12-05T02:38:07.959Z,1.20
2018-12-05T02:40:36.423Z,1.20
2018-12-05T02:43:05.030Z,1.20
2018-12-05T02:45:33.623Z,1.20
2018-12-05T02:48:02.086Z,1.20
2018-12-05T02:50:30.541Z,1.10
2018-12-05T02:52:59.117Z,1.20
2018-12-05T02:55:27.569Z,1.20
2018-12-05T02:57:56.023Z,1.20
2018-12-05T03:00:24.505Z,1.20
2018-12-05T03:02:52.970Z,1.10
2018-12-05T03:05:21.454Z,1.10
2018-12-05T03:07:49.915Z,1.10
2018-12-05T03:15:14.818Z,1.10
2018-12-05T03:17:43.287Z,1.10
2018-12-05T03:20:11.754Z,1.10
2018-12-05T03:25:08.510Z,1.10
2018-12-05T03:27:37.027Z,1.10
2018-12-05T03:37:30.306Z,1.00
2018-12-05T03:39:58.750Z,1.00
2018-12-05T03:42:27.202Z,1.00
2018-12-05T03:44:55.658Z,1.00
2018-12-05T03:47:24.099Z,1.00
2018-12-05T03:49:57.776Z,1.00
2018-12-05T03:52:26.222Z,0.90
2018-12-05T03:54:54.671Z,0.90
2018-12-05T03:57:23.129Z,1.00
2018-12-05T03:59:51.583Z,0.90
2018-12-05T04:02:20.142Z,0.90
2018-12-05T04:04:48.599Z,0.90
2018-12-05T04:07:17.058Z,0.90
2018-12-05T04:09:45.535Z,0.90
2018-12-05T04:14:56.449Z,0.90
2018-12-05T04:17:24.959Z,0.90
2018-12-05T04:19:53.407Z,0.80
2018-12-05T04:22:21.873Z,0.80
2018-12-05T04:24:50.347Z,0.80
2018-12-05T04:37:12.622Z,0.80
2018-12-05T04:39:41.075Z,0.80
2018-12-05T04:42:09.527Z,0.80
2018-12-05T05:14:15.775Z,0.60
2018-12-05T05:16:44.246Z,0.70
2018-12-05T05:19:12.714Z,0.60
2018-12-05T05:21:41.190Z,0.60
2018-12-05T05:24:09.667Z,0.60
2018-12-05T05:29:06.262Z,0.60
2018-12-05T05:34:02.858Z,0.60
2018-12-05T05:36:31.319Z,0.60
2018-12-05T05:38:59.783Z,0.50
2018-12-05T05:41:28.415Z,0.50
2018-12-05T05:43:56.925Z,0.60
2018-12-05T05:46:25.442Z,0.50
2018-12-05T05:48:53.893Z,0.50
2018-12-05T05:51:22.350Z,0.50
2018-12-05T05:53:50.807Z,0.50
2018-12-05T05:56:19.292Z,0.50
2018-12-05T05:58:47.797Z,0.50
2018-12-05T06:01:16.262Z,0.50
2018-12-05T06:03:44.730Z,0.40
2018-12-05T06:06:13.225Z,0.50
2018-12-05T06:08:41.690Z,0.50
2018-12-05T06:11:10.156Z,0.50
2018-12-05T06:13:38.618Z,0.50
2018-12-05T06:16:07.107Z,0.50
2018-12-05T06:18:35.566Z,0.50
2018-12-05T06:21:04.165Z,0.50
2018-12-05T06:23:32.630Z,0.40
2018-12-05T06:26:01.091Z,0.40
2018-12-05T06:28:29.551Z,0.40
2018-12-05T06:30:58.014Z,0.40
2018-12-05T06:33:26.469Z,0.40
2018-12-05T06:35:54.937Z,0.50
2018-12-05T06:38:23.400Z,0.40
2018-12-05T06:40:51.878Z,0.40
2018-12-05T06:43:20.333Z,0.40
2018-12-05T06:45:48.866Z,0.40
2018-12-05T06:48:17.318Z,0.40
2018-12-05T06:50:45.758Z,0.40
2018-12-05T06:53:14.214Z,0.40
2018-12-05T07:22:52.282Z,0.30
2018-12-05T07:25:20.751Z,0.30
2018-12-05T07:30:17.365Z,0.30
2018-12-05T07:32:45.815Z,0.30
2018-12-05T07:35:14.263Z,0.30
2018-12-05T07:37:42.720Z,0.40
2018-12-05T07:40:11.186Z,0.40
2018-12-05T07:42:39.634Z,0.40
2018-12-05T07:45:08.250Z,0.30
2018-12-05T07:47:36.686Z,0.30
2018-12-05T07:50:05.706Z,0.30
2018-12-05T07:52:34.178Z,0.30
2018-12-05T07:55:02.656Z,0.30
2018-12-05T07:57:31.122Z,0.20
2018-12-05T07:59:59.598Z,0.10
2018-12-05T08:02:28.062Z,0.20
2018-12-05T08:04:56.536Z,0.20
2018-12-05T08:07:25.007Z,0.30
2018-12-05T08:09:53.483Z,0.20
2018-12-05T08:12:21.945Z,0.20
2018-12-05T08:14:50.453Z,0.10
2018-12-05T08:17:18.920Z,0.10
2018-12-05T08:19:48.293Z,0.10
2018-12-05T08:22:16.890Z,0.20
2018-12-05T08:24:45.357Z,0.20
2018-12-05T08:27:13.818Z,0.10
2018-12-05T08:29:42.287Z,0.10
2018-12-05T08:32:10.738Z,0.10
2018-12-05T08:34:39.202Z,0.10
2018-12-05T08:37:07.678Z,0.20
2018-12-05T08:39:36.258Z,0.20
2018-12-05T08:42:04.754Z,0.20
2018-12-05T08:44:33.211Z,0.20
2018-12-05T08:47:01.674Z,0.20
2018-12-05T08:49:30.122Z,0.20
2018-12-05T08:51:58.591Z,0.30
2018-12-05T08:54:27.063Z,0.30
2018-12-05T08:56:55.730Z,0.20
2018-12-05T08:59:24.223Z,0.20
2018-12-05T09:01:52.682Z,0.30
2018-12-05T09:04:21.148Z,0.30
2018-12-05T09:06:49.618Z,0.30
2018-12-05T09:09:18.066Z,0.30
2018-12-05T09:11:46.665Z,0.40
2018-12-05T09:14:15.118Z,0.30
2018-12-05T09:16:43.613Z,0.30
2018-12-05T09:19:12.061Z,0.30
2018-12-05T09:21:40.537Z,0.30
2018-12-05T09:24:08.991Z,0.40
2018-12-05T09:26:37.543Z,0.40
2018-12-05T09:29:06.009Z,0.50
2018-12-05T09:31:34.472Z,0.50
2018-12-05T09:34:02.931Z,0.50
2018-12-05T09:36:31.387Z,0.50
2018-12-05T09:38:59.842Z,0.50
2018-12-05T09:41:28.310Z,0.60
2018-12-05T09:43:56.762Z,0.60
2018-12-05T09:46:25.242Z,0.60
2018-12-05T09:51:22.082Z,0.70
2018-12-05T09:53:50.635Z,0.70
2018-12-05T09:56:19.230Z,0.80
2018-12-05T09:58:47.687Z,0.80
2018-12-05T10:01:16.143Z,0.80
2018-12-05T10:03:44.610Z,0.80
2018-12-05T10:06:13.186Z,0.80
2018-12-05T10:08:41.651Z,0.90
2018-12-05T10:11:10.127Z,0.90
2018-12-05T10:13:38.610Z,1.00
2018-12-05T10:16:07.079Z,1.00
2018-12-05T10:18:35.526Z,1.00
2018-12-05T10:21:04.016Z,1.00
2018-12-05T10:35:53.306Z,1.00
2018-12-05T10:38:21.760Z,1.00
2018-12-05T10:40:50.237Z,1.00
2018-12-05T10:43:18.690Z,1.00
2018-12-05T10:45:47.295Z,1.00
2018-12-05T10:48:15.862Z,1.00
2018-12-05T10:50:44.339Z,1.00
2018-12-05T10:53:12.798Z,1.00
2018-12-05T10:55:41.256Z,1.00
2018-12-05T10:58:09.765Z,1.00
2018-12-05T11:00:43.426Z,1.00
2018-12-05T11:03:17.488Z,1.00
2018-12-05T11:05:51.334Z,1.00
2018-12-05T11:08:22.209Z,1.00
2018-12-05T11:10:55.948Z,1.00
2018-12-05T11:13:29.754Z,1.00
2018-12-05T11:16:05.210Z,0.90
2018-12-05T11:18:39.420Z,0.90
2018-12-05T11:21:13.151Z,0.90
2018-12-05T11:23:47.556Z,1.00
2018-12-05T11:26:19.338Z,1.00
2018-12-05T11:28:47.802Z,1.00
2018-12-05T11:31:16.260Z,1.00
2018-12-05T11:33:45.306Z,1.00
2018-12-05T11:36:13.955Z,1.10
2018-12-05T11:38:42.434Z,1.10
2018-12-05T11:41:10.910Z,1.10
2018-12-05T11:43:39.523Z,1.10
2018-12-05T11:46:08.114Z,1.10
2018-12-05T11:48:36.566Z,1.10
2018-12-05T11:51:05.064Z,1.10
2018-12-05T11:53:33.526Z,1.20
2018-12-05T11:56:02.011Z,1.20
2018-12-05T11:58:30.458Z,1.20
2018-12-05T12:00:58.960Z,1.20
2018-12-05T12:03:27.418Z,1.30
2018-12-05T12:05:55.890Z,1.30
2018-12-05T12:08:24.354Z,1.30
2018-12-05T12:10:52.834Z,1.30
2018-12-05T12:13:21.310Z,1.30
2018-12-05T12:15:49.822Z,1.20
2018-12-05T12:18:18.448Z,1.20
2018-12-05T12:20:46.983Z,1.20
2018-12-05T12:23:15.506Z,1.30
2018-12-05T12:25:44.048Z,1.20
2018-12-05T12:28:12.496Z,1.20
2018-12-05T12:30:40.952Z,1.30
2018-12-05T12:33:09.405Z,1.30
2018-12-05T12:35:37.997Z,1.30
2018-12-05T12:38:06.447Z,1.30
2018-12-05T12:40:35.042Z,1.20
2018-12-05T12:43:03.499Z,1.30
2018-12-05T12:45:31.976Z,1.30
2018-12-05T12:48:00.470Z,1.20
2018-12-05T12:50:28.926Z,1.20
2018-12-05T12:52:57.394Z,1.10
2018-12-05T12:55:25.891Z,1.20
2018-12-05T12:57:54.350Z,1.20
2018-12-05T13:00:22.822Z,1.20
2018-12-05T13:02:51.275Z,1.20
2018-12-05T13:05:19.865Z,1.20
2018-12-05T13:07:48.338Z,1.20
2018-12-05T13:10:16.822Z,1.20
2018-12-05T13:12:45.313Z,1.20
2018-12-05T13:15:13.778Z,1.10
2018-12-05T13:17:42.246Z,1.10
2018-12-05T13:20:10.791Z,1.20
2018-12-05T13:22:39.249Z,1.10
2018-12-05T13:25:07.792Z,1.10
2018-12-05T13:27:36.254Z,1.10
2018-12-05T13:30:05.442Z,1.00
2018-12-05T13:32:33.911Z,1.00
2018-12-05T13:35:02.526Z,1.00
2018-12-05T13:37:30.983Z,0.90
2018-12-05T13:39:59.529Z,0.90
2018-12-05T13:42:28.078Z,0.80
2018-12-05T13:44:56.552Z,0.80
2018-12-05T13:47:25.019Z,0.80
2018-12-05T13:49:53.473Z,0.70
2018-12-05T13:52:21.938Z,0.70
2018-12-05T13:54:50.393Z,0.70
2018-12-05T13:57:18.997Z,0.70
2018-12-05T13:59:47.535Z,0.70
2018-12-05T14:02:16.002Z,0.60
2018-12-05T14:04:44.471Z,0.60
2018-12-05T14:07:13.166Z,0.50
2018-12-05T14:09:41.613Z,0.50
2018-12-05T14:12:14.424Z,0.50
2018-12-05T14:14:42.918Z,0.50
2018-12-05T14:17:11.388Z,0.60
2018-12-05T14:19:39.850Z,0.50
2018-12-05T14:22:08.347Z,0.50
2018-12-05T14:24:36.802Z,0.50
2018-12-05T14:27:05.397Z,0.50
2018-12-05T14:29:33.874Z,0.40
2018-12-05T14:32:02.346Z,0.40
2018-12-05T14:34:30.844Z,0.40
2018-12-05T14:36:59.374Z,0.40
2018-12-05T14:39:28.754Z,0.30
2018-12-05T14:41:57.263Z,0.30
2018-12-05T14:44:25.719Z,0.40
2018-12-05T14:46:54.184Z,0.40
2018-12-05T14:49:22.628Z,0.40
2018-12-05T14:51:51.198Z,0.30
2018-12-05T14:54:19.667Z,0.30
2018-12-05T14:56:48.130Z,0.30
2018-12-05T14:59:16.578Z,0.30
2018-12-05T15:01:45.044Z,0.30
2018-12-05T15:04:13.495Z,0.30
2018-12-05T15:06:41.962Z,0.20
2018-12-05T15:09:11.493Z,0.20
2018-12-05T15:11:40.202Z,0.20
2018-12-05T15:14:08.790Z,0.20
2018-12-05T15:16:37.250Z,0.20
2018-12-05T15:19:05.870Z,0.20
2018-12-05T15:21:34.322Z,0.20
2018-12-05T15:24:02.846Z,0.20
2018-12-05T15:26:31.423Z,0.20
2018-12-05T15:28:59.910Z,0.20
2018-12-05T15:31:28.362Z,0.20
2018-12-05T15:33:56.841Z,0.20
2018-12-05T15:36:25.323Z,0.20
2018-12-05T15:38:53.810Z,0.20
2018-12-05T15:41:22.475Z,0.20
2018-12-05T15:43:50.926Z,0.20
2018-12-05T15:46:19.422Z,0.10
2018-12-05T15:48:47.992Z,0.10
2018-12-05T15:51:16.453Z,0.00
2018-12-05T15:53:44.914Z,0.10
2018-12-05T15:56:13.375Z,0.00
2018-12-05T15:58:41.838Z,0.10
2018-12-05T16:01:10.479Z,0.10
2018-12-05T16:03:43.096Z,0.10
2018-12-05T16:06:09.689Z,0.00
2018-12-05T16:08:38.156Z,0.00
2018-12-05T16:11:06.647Z,0.00
2018-12-05T16:13:35.106Z,-0.10
2018-12-05T16:16:03.699Z,0.00
2018-12-05T16:18:32.163Z,0.00
2018-12-05T16:21:00.626Z,0.00
2018-12-05T16:23:29.101Z,0.00
2018-12-05T16:25:57.577Z,0.00
2018-12-05T16:28:26.034Z,0.00
2018-12-05T16:30:54.566Z,0.00
2018-12-05T16:33:23.030Z,0.00
2018-12-05T16:35:51.499Z,-0.10
2018-12-05T16:38:19.980Z,-0.10
2018-12-05T16:40:49.422Z,-0.10
2018-12-05T16:43:17.882Z,-0.20
2018-12-05T16:45:46.359Z,-0.20
2018-12-05T16:48:14.841Z,-0.20
2018-12-05T16:50:43.326Z,-0.10
2018-12-05T16:53:11.778Z,-0.10
2018-12-05T16:55:40.260Z,-0.20
2018-12-05T16:58:08.745Z,-0.10
2018-12-05T17:00:37.269Z,-0.20
2018-12-05T17:03:05.732Z,-0.20
2018-12-05T17:05:34.206Z,-0.10
2018-12-05T17:08:02.686Z,-0.10
2018-12-05T17:10:31.176Z,-0.10
2018-12-05T17:12:59.647Z,-0.10
2018-12-05T17:15:28.139Z,-0.10
2018-12-05T17:17:57.047Z,-0.10
2018-12-05T17:20:25.556Z,-0.10
2018-12-05T17:22:54.030Z,-0.10
2018-12-05T17:25:22.504Z,-0.20
2018-12-05T17:27:50.974Z,-0.10
2018-12-05T17:30:19.462Z,0.00
2018-12-05T17:32:47.947Z,0.00
2018-12-05T17:35:16.426Z,0.00
2018-12-05T17:37:44.964Z,0.00
2018-12-05T17:40:13.566Z,0.00
2018-12-05T17:42:42.262Z,0.00
2018-12-05T17:45:10.754Z,-0.10
2018-12-05T17:47:39.249Z,-0.10
2018-12-05T17:50:07.742Z,-0.10
2018-12-05T17:52:36.210Z,-0.10
2018-12-05T17:55:04.965Z,-0.10
2018-12-05T17:57:33.601Z,-0.10
2018-12-05T18:00:02.072Z,-0.10
2018-12-05T18:02:30.553Z,-0.10
2018-12-05T18:04:59.019Z,0.00
2018-12-05T18:07:27.499Z,0.00
2018-12-05T18:09:55.978Z,-0.10
2018-12-05T18:12:24.473Z,-0.10
2018-12-05T18:14:52.962Z,-0.10
2018-12-05T18:17:21.477Z,-0.10
2018-12-05T18:19:49.945Z,-0.10
2018-12-05T18:22:18.438Z,-0.10
2018-12-05T18:24:46.927Z,-0.10
2018-12-05T18:27:15.445Z,-0.10
2018-12-05T18:29:44.032Z,-0.10
2018-12-05T18:32:12.666Z,-0.20
2018-12-05T18:34:41.142Z,-0.20
2018-12-05T18:37:09.690Z,-0.20
2018-12-05T18:39:38.374Z,-0.20
2018-12-05T18:42:06.842Z,-0.20
2018-12-05T18:44:35.374Z,-0.20
2018-12-05T18:47:03.959Z,-0.30
2018-12-05T18:49:32.529Z,-0.30
2018-12-05T18:52:01.000Z,-0.30
2018-12-05T18:54:29.467Z,-0.40
2018-12-05T18:56:57.958Z,-0.40
2018-12-05T18:59:26.430Z,-0.40
2018-12-05T19:01:54.957Z,-0.40
2018-12-05T19:04:23.473Z,-0.30
2018-12-05T19:06:51.959Z,-0.30
2018-12-05T19:09:26.776Z,-0.30
2018-12-05T19:11:50.978Z,-0.30
2018-12-05T19:14:25.030Z,-0.30
2018-12-05T19:16:53.495Z,-0.30
2018-12-05T19:19:21.963Z,-0.30
2018-12-05T19:21:50.734Z,-0.30
2018-12-05T19:24:19.269Z,-0.30
2018-12-05T19:26:47.749Z,-0.30
2018-12-05T19:29:16.246Z,-0.30
2018-12-05T19:31:44.710Z,-0.30
2018-12-05T19:34:13.171Z,-0.30
2018-12-05T19:36:41.651Z,-0.40
2018-12-05T19:39:10.530Z,-0.40
2018-12-05T19:41:39.041Z,-0.40
2018-12-05T19:44:07.667Z,-0.30
2018-12-05T19:46:36.209Z,-0.30
2018-12-05T19:49:04.690Z,-0.30
2018-12-05T19:51:33.178Z,-0.30
2018-12-05T19:54:01.789Z,-0.30
2018-12-05T19:56:30.262Z,-0.30
2018-12-05T19:58:58.761Z,-0.30
2018-12-05T20:01:27.265Z,-0.30
2018-12-05T20:03:56.167Z,-0.30
2018-12-05T20:06:24.658Z,-0.30
2018-12-05T20:08:53.134Z,-0.40
2018-12-05T20:11:21.617Z,-0.40
2018-12-05T20:13:50.114Z,-0.50
2018-12-05T20:16:19.757Z,-0.40
2018-12-05T20:18:48.258Z,-0.40
2018-12-05T20:21:17.045Z,-0.40
2018-12-05T20:23:45.876Z,-0.30
2018-12-05T20:26:14.350Z,-0.30
2018-12-05T20:28:42.827Z,-0.30
2018-12-05T20:31:11.314Z,-0.30
2018-12-05T20:33:39.808Z,-0.30
2018-12-05T20:36:08.262Z,-0.30
2018-12-05T20:38:36.758Z,-0.40
2018-12-05T20:41:05.603Z,-0.30
2018-12-05T20:43:34.387Z,-0.30
2018-12-05T20:46:02.850Z,-0.30
2018-12-05T20:48:31.379Z,-0.30
2018-12-05T20:50:59.891Z,-0.20
2018-12-05T20:53:28.350Z,-0.20
2018-12-05T20:55:56.828Z,-0.20
2018-12-05T20:58:25.331Z,-0.30
2018-12-05T21:00:54.068Z,-0.30
2018-12-05T21:03:22.546Z,-0.30
2018-12-05T21:05:51.036Z,-0.40
2018-12-05T21:08:19.525Z,-0.50
2018-12-05T21:10:48.026Z,-0.40
2018-12-05T21:13:16.513Z,-0.50
2018-12-05T21:15:45.168Z,-0.40
2018-12-05T21:18:13.648Z,-0.40
2018-12-05T21:20:42.171Z,-0.40
2018-12-05T21:23:10.638Z,-0.30
2018-12-05T21:25:39.106Z,-0.40
2018-12-05T21:28:07.630Z,-0.50
2018-12-05T21:30:36.618Z,-0.50
2018-12-05T21:33:05.102Z,-0.60
2018-12-05T21:35:33.759Z,-0.50
2018-12-05T21:38:02.237Z,-0.50
2018-12-05T21:40:30.726Z,-0.50
2018-12-05T21:42:59.209Z,-0.50
2018-12-05T21:45:27.709Z,-0.40
2018-12-05T21:47:56.194Z,-0.40
2018-12-05T21:50:24.690Z,-0.40
2018-12-05T21:52:53.162Z,-0.50
2018-12-05T21:55:21.626Z,-0.40
2018-12-05T21:57:50.094Z,-0.40
2018-12-05T22:00:19.105Z,-0.40
2018-12-05T22:02:47.778Z,-0.40
2018-12-05T22:05:16.281Z,-0.30
2018-12-05T22:07:44.758Z,-0.30
2018-12-05T22:10:13.258Z,-0.30
2018-12-05T22:12:41.734Z,-0.20
2018-12-05T22:15:10.244Z,-0.30
2018-12-05T22:17:38.715Z,-0.20
2018-12-05T22:20:08.912Z,-0.30
2018-12-05T22:22:37.394Z,-0.20
2018-12-05T22:25:06.051Z,-0.30
2018-12-05T22:27:34.510Z,-0.20
2018-12-05T22:30:03.123Z,-0.20
2018-12-05T22:32:31.585Z,-0.20
2018-12-05T22:35:00.058Z,-0.20
2018-12-05T22:37:28.523Z,-0.20
2018-12-05T22:39:57.002Z,-0.30
2018-12-05T22:42:25.616Z,-0.30
2018-12-05T22:44:54.075Z,-0.30
2018-12-05T22:47:22.562Z,-0.30
2018-12-05T22:49:51.022Z,-0.30
2018-12-05T22:52:19.496Z,-0.30
2018-12-05T22:54:47.976Z,-0.30
2018-12-05T22:57:16.615Z,-0.30
2018-12-05T22:59:45.078Z,-0.30
2018-12-05T23:02:13.578Z,-0.40
2018-12-05T23:04:42.046Z,-0.30
2018-12-05T23:07:10.694Z,-0.30
2018-12-05T23:09:39.158Z,-0.30
2018-12-05T23:12:07.639Z,-0.30
2018-12-05T23:14:36.106Z,-0.30
2018-12-05T23:17:04.626Z,-0.30
2018-12-05T23:19:33.101Z,-0.30
2018-12-05T23:22:01.567Z,-0.30
2018-12-05T23:24:30.322Z,-0.20
2018-12-05T23:26:58.806Z,-0.20
2018-12-05T23:29:27.649Z,-0.20
2018-12-05T23:31:56.139Z,-0.20
2018-12-05T23:34:24.989Z,-0.10
2018-12-05T23:36:53.494Z,-0.20
2018-12-05T23:39:21.962Z,-0.20
2018-12-05T23:41:50.883Z,-0.20
2018-12-05T23:44:19.366Z,-0.20
2018-12-05T23:46:47.875Z,-0.10
2018-12-05T23:49:16.363Z,-0.10
2018-12-05T23:51:44.856Z,-0.10
2018-12-05T23:54:13.399Z,-0.10
2018-12-05T23:56:42.079Z,-0.10
2018-12-05T23:59:10.650Z,-0.20
